Cromwell, Connecticut
Current Conditions -  °F | °C
As of 8:08 PM on Tuesday 27 Jan 2015 (Local Time) from KHFD Reporting Station
Haze Haze  
Wind Chill:   Ceiling: 2500
Heat Index: 16°   Visibility: 1.7mi
Dew Point:   Wind: 16mph
Humidity: 74%   Direction: 340°NNW
Pressure: 29.73"   Gusts: 26mph
Location:  41.59°N, 72.65°W
Report Text: KHFD 280108Z 34014G23KT 1 3/4SM HZ OVC025 M09/M13 A2973 RMK AO2 T10891128 $
Loading
Personal Weather Stations






























Interactive Weather Map New forecast layout! Learn more

10-Day Weather Forecast

Advertisements
Track Severe Weather on mobile